createdAt,value
2022-08-03T00:01:51.540Z,2.22
2022-08-03T00:04:19.482Z,1.35
2022-08-03T00:06:47.268Z,1.42
2022-08-03T00:09:16.375Z,1.30
2022-08-03T00:11:44.200Z,1.75
2022-08-03T00:14:11.974Z,1.20
2022-08-03T00:16:39.780Z,1.80
2022-08-03T00:19:07.516Z,1.70
2022-08-03T00:21:35.280Z,1.80
2022-08-03T00:24:03.059Z,2.08
2022-08-03T00:26:32.329Z,1.08
2022-08-03T00:29:00.148Z,1.80
2022-08-03T00:31:44.980Z,1.40
2022-08-03T00:34:15.871Z,2.17
2022-08-03T00:36:43.643Z,1.75
2022-08-03T00:39:11.458Z,1.70
2022-08-03T00:41:40.733Z,1.80
2022-08-03T00:44:08.534Z,1.83
2022-08-03T00:46:36.277Z,1.42
2022-08-03T00:49:04.177Z,1.67
2022-08-03T00:51:33.095Z,2.17
2022-08-03T00:54:01.370Z,1.63
2022-08-03T00:56:29.176Z,1.80
2022-08-03T00:58:59.883Z,1.52
2022-08-03T01:01:32.197Z,1.55
2022-08-03T01:04:01.002Z,1.45
2022-08-03T01:06:40.784Z,1.60
2022-08-03T01:09:20.659Z,1.08
2022-08-03T01:12:00.485Z,1.58
2022-08-03T01:14:39.648Z,1.58
2022-08-03T01:17:16.208Z,1.67
2022-08-03T01:19:54.827Z,1.25
2022-08-03T01:23:20.214Z,1.42
2022-08-03T01:26:14.243Z,1.35
2022-08-03T01:29:09.828Z,1.40
2022-08-03T01:32:53.556Z,1.17
2022-08-03T01:34:41.531Z,1.13
2022-08-03T01:37:13.542Z,1.55
2022-08-03T01:39:43.955Z,1.45
2022-08-03T01:42:15.770Z,1.00
2022-08-03T01:44:48.955Z,1.08
2022-08-03T01:47:23.363Z,1.50
2022-08-03T01:49:53.611Z,1.38
2022-08-03T01:52:23.070Z,1.40
2022-08-03T01:54:54.485Z,1.38
2022-08-03T01:57:26.387Z,1.25
2022-08-03T01:59:57.618Z,1.52
2022-08-03T02:02:34.179Z,1.25
2022-08-03T02:05:05.932Z,1.50
2022-08-03T02:07:42.002Z,1.27
2022-08-03T02:10:14.125Z,1.48
2022-08-03T02:12:46.285Z,1.60
2022-08-03T02:15:17.509Z,1.38
2022-08-03T02:17:48.773Z,1.95
2022-08-03T02:20:18.201Z,1.35
2022-08-03T02:22:47.482Z,1.50
2022-08-03T02:25:17.892Z,1.58
2022-08-03T02:27:54.329Z,1.30
2022-08-03T02:30:28.068Z,1.15
2022-08-03T02:33:01.817Z,1.75
2022-08-03T02:35:32.959Z,1.20
2022-08-03T02:38:04.924Z,1.40
2022-08-03T02:40:34.459Z,1.20
2022-08-03T02:43:09.953Z,1.27
2022-08-03T02:45:47.754Z,1.30
2022-08-03T02:48:23.492Z,1.30
2022-08-03T02:50:55.105Z,1.13
2022-08-03T02:53:25.424Z,1.25
2022-08-03T02:55:56.112Z,1.58
2022-08-03T02:58:25.747Z,1.58
2022-08-03T03:00:56.118Z,1.05
2022-08-03T03:03:28.957Z,1.42
2022-08-03T03:06:01.999Z,1.27
2022-08-03T03:08:35.322Z,0.90
2022-08-03T03:11:09.715Z,1.10
2022-08-03T03:13:38.896Z,1.40
2022-08-03T03:16:09.096Z,1.75
2022-08-03T03:18:39.275Z,1.52
2022-08-03T03:21:10.588Z,1.67
2022-08-03T03:23:41.593Z,1.50
2022-08-03T03:26:10.228Z,1.30
2022-08-03T03:28:38.648Z,1.58
2022-08-03T03:31:07.205Z,1.38
2022-08-03T03:33:35.782Z,1.35
2022-08-03T03:36:08.654Z,1.48
2022-08-03T03:38:37.400Z,1.27
2022-08-03T03:41:06.646Z,1.73
2022-08-03T03:43:35.340Z,1.40
2022-08-03T03:46:03.429Z,1.40
2022-08-03T03:48:32.286Z,1.55
2022-08-03T03:51:01.034Z,2.10
2022-08-03T03:53:30.172Z,1.92
2022-08-03T03:56:02.136Z,1.45
2022-08-03T03:58:33.263Z,1.60
2022-08-03T04:01:01.693Z,1.17
2022-08-03T04:03:29.656Z,1.08
2022-08-03T04:06:15.395Z,1.80
2022-08-03T04:09:13.503Z,1.65
2022-08-03T04:11:49.964Z,1.50
2022-08-03T04:14:21.591Z,1.27
2022-08-03T04:16:54.503Z,1.67
2022-08-03T04:19:31.668Z,1.33
2022-08-03T04:22:05.288Z,1.23
2022-08-03T04:24:42.356Z,1.70
2022-08-03T04:27:15.381Z,1.85
2022-08-03T04:29:48.784Z,1.33
2022-08-03T04:32:18.468Z,1.53
2022-08-03T04:34:46.966Z,1.45
2022-08-03T04:37:26.247Z,1.58
2022-08-03T04:40:01.338Z,1.38
2022-08-03T04:42:34.100Z,1.90
2022-08-03T04:45:05.190Z,1.48
2022-08-03T04:47:35.730Z,1.25
2022-08-03T04:50:10.398Z,2.13
2022-08-03T04:52:40.823Z,1.65
2022-08-03T04:55:11.193Z,2.17
2022-08-03T04:57:38.941Z,2.22
2022-08-03T05:00:08.404Z,1.73
2022-08-03T05:02:36.201Z,1.27
2022-08-03T05:05:05.157Z,1.85
2022-08-03T05:07:35.881Z,1.23
2022-08-03T05:10:14.895Z,1.40
2022-08-03T05:12:46.812Z,1.58
2022-08-03T05:15:15.698Z,1.40
2022-08-03T05:17:43.601Z,1.58
2022-08-03T05:20:12.709Z,1.52
2022-08-03T05:22:40.747Z,1.67
2022-08-03T05:25:09.160Z,1.58
2022-08-03T05:27:36.983Z,1.55
2022-08-03T05:30:30.992Z,1.58
2022-08-03T05:32:55.269Z,1.60
2022-08-03T05:35:56.156Z,1.95
2022-08-03T05:38:13.041Z,2.35
2022-08-03T05:40:56.900Z,1.73
2022-08-03T05:43:25.092Z,1.73
2022-08-03T05:46:12.352Z,1.65
2022-08-03T05:48:40.987Z,1.83
2022-08-03T05:51:11.285Z,2.05
2022-08-03T05:53:40.012Z,1.40
2022-08-03T05:56:14.188Z,1.90
2022-08-03T05:58:44.929Z,1.27
2022-08-03T06:01:14.172Z,1.67
2022-08-03T06:03:42.032Z,1.75
2022-08-03T06:06:09.918Z,2.05
2022-08-03T06:08:38.149Z,2.03
2022-08-03T06:11:05.998Z,2.08
2022-08-03T06:13:34.189Z,1.90
2022-08-03T06:16:02.077Z,2.05
2022-08-03T06:18:31.268Z,1.92
2022-08-03T06:21:14.075Z,1.38
2022-08-03T06:23:53.320Z,1.80
2022-08-03T06:26:28.032Z,1.77
2022-08-03T06:28:56.689Z,1.83
2022-08-03T06:31:33.424Z,1.30
2022-08-03T06:34:31.577Z,1.70
2022-08-03T06:36:53.145Z,1.85
2022-08-03T06:39:23.647Z,1.58
2022-08-03T06:41:53.891Z,2.30
2022-08-03T06:44:21.890Z,2.00
2022-08-03T06:46:51.056Z,1.65
2022-08-03T06:49:20.341Z,2.05
2022-08-03T06:52:03.661Z,1.50
2022-08-03T06:54:35.873Z,1.50
2022-08-03T06:57:04.558Z,2.00
2022-08-03T07:00:09.402Z,1.83
2022-08-03T07:02:20.408Z,1.35
2022-08-03T07:04:50.456Z,1.77
2022-08-03T07:07:19.171Z,2.10
2022-08-03T07:09:57.182Z,1.90
2022-08-03T07:12:29.841Z,2.13
2022-08-03T07:15:02.329Z,2.17
2022-08-03T07:17:33.139Z,2.10
2022-08-03T07:20:07.800Z,2.20
2022-08-03T07:22:36.362Z,1.55
2022-08-03T07:25:05.296Z,2.08
2022-08-03T07:27:33.716Z,2.33
2022-08-03T07:30:01.391Z,1.95
2022-08-03T07:32:31.196Z,2.00
2022-08-03T07:35:01.143Z,1.85
2022-08-03T07:37:32.004Z,2.22
2022-08-03T07:40:00.825Z,2.10
2022-08-03T07:42:29.809Z,1.88
2022-08-03T07:44:58.606Z,2.22
2022-08-03T07:47:34.780Z,2.17
2022-08-03T07:50:05.553Z,1.80
2022-08-03T07:52:50.315Z,2.17
2022-08-03T07:55:20.258Z,1.92
2022-08-03T07:57:48.620Z,2.50
2022-08-03T08:00:20.575Z,2.10
2022-08-03T08:02:48.338Z,2.28
2022-08-03T08:05:16.209Z,2.50
2022-08-03T08:07:51.681Z,2.20
2022-08-03T08:10:20.503Z,2.13
2022-08-03T08:12:49.122Z,2.42
2022-08-03T08:15:17.137Z,2.38
2022-08-03T08:17:47.473Z,2.15
2022-08-03T08:20:27.706Z,3.03
2022-08-03T08:23:01.089Z,2.47
2022-08-03T08:25:31.647Z,2.50
2022-08-03T08:28:29.547Z,2.33
2022-08-03T08:30:50.712Z,2.20
2022-08-03T08:33:22.524Z,2.20
2022-08-03T08:35:52.900Z,2.28
2022-08-03T08:38:22.423Z,2.58
2022-08-03T08:40:50.632Z,2.90
2022-08-03T08:43:18.701Z,2.63
2022-08-03T08:45:49.560Z,2.63
2022-08-03T08:48:25.450Z,2.40
2022-08-03T08:50:55.464Z,2.67
2022-08-03T08:53:28.916Z,2.80
2022-08-03T08:56:01.652Z,2.17
2022-08-03T08:58:42.392Z,2.25
2022-08-03T09:01:10.315Z,2.70
2022-08-03T09:03:38.746Z,2.40
2022-08-03T09:06:07.511Z,2.10
2022-08-03T09:08:36.720Z,2.60
2022-08-03T09:11:04.721Z,2.33
2022-08-03T09:13:34.548Z,2.30
2022-08-03T09:16:16.867Z,2.22
2022-08-03T09:18:48.317Z,2.58
2022-08-03T09:21:35.494Z,2.40
2022-08-03T09:24:16.440Z,2.80
2022-08-03T09:26:54.028Z,2.90
2022-08-03T09:29:23.207Z,2.47
2022-08-03T09:32:01.407Z,2.20
2022-08-03T09:34:29.561Z,2.60
2022-08-03T09:36:58.727Z,2.10
2022-08-03T09:39:40.782Z,1.95
2022-08-03T09:42:14.973Z,2.13
2022-08-03T09:44:45.250Z,2.03
2022-08-03T09:47:15.622Z,1.95
2022-08-03T09:49:59.412Z,2.15
2022-08-03T09:52:49.328Z,2.23
2022-08-03T09:56:30.946Z,2.40
2022-08-03T09:58:11.246Z,2.80
2022-08-03T10:00:56.320Z,2.35
2022-08-03T10:03:25.621Z,2.10
2022-08-03T10:05:57.583Z,2.20
2022-08-03T10:10:58.449Z,2.22
2022-08-03T10:13:26.575Z,2.33
2022-08-03T10:16:21.484Z,2.40
2022-08-03T10:18:42.170Z,2.50
2022-08-03T10:21:17.494Z,2.55
2022-08-03T10:23:46.269Z,2.20
2022-08-03T10:26:23.485Z,1.92
2022-08-03T10:28:55.242Z,2.55
2022-08-03T10:31:24.939Z,1.90
2022-08-03T10:33:59.012Z,2.20
2022-08-03T10:39:01.103Z,2.08
2022-08-03T10:41:37.411Z,2.22
2022-08-03T10:44:10.422Z,2.35
2022-08-03T10:46:44.696Z,1.95
2022-08-03T10:49:15.406Z,2.20
2022-08-03T10:51:45.464Z,1.98
2022-08-03T10:55:03.533Z,1.75
2022-08-03T10:57:49.009Z,1.83
2022-08-03T11:00:20.104Z,2.15
2022-08-03T11:03:11.818Z,2.10
2022-08-03T11:05:43.241Z,2.38
2022-08-03T11:08:34.960Z,1.95
2022-08-03T11:11:28.419Z,1.98
2022-08-03T11:14:05.682Z,2.45
2022-08-03T11:16:36.259Z,2.35
2022-08-03T11:19:07.269Z,2.47
2022-08-03T11:21:58.805Z,2.30
2022-08-03T11:24:58.695Z,2.38
2022-08-03T11:27:29.820Z,2.17
2022-08-03T11:30:06.082Z,2.30
2022-08-03T11:32:58.449Z,2.25
2022-08-03T11:35:29.909Z,2.13
2022-08-03T11:38:08.035Z,2.13
2022-08-03T11:40:42.777Z,1.73
2022-08-03T11:43:47.338Z,2.13
2022-08-03T11:46:28.414Z,1.70
2022-08-03T11:49:10.384Z,1.92
2022-08-03T11:51:39.848Z,1.70
2022-08-03T11:54:08.941Z,1.90
2022-08-03T11:56:46.918Z,1.63
2022-08-03T11:59:19.845Z,1.83
2022-08-03T12:01:50.805Z,1.55
2022-08-03T12:04:18.644Z,1.52
2022-08-03T12:07:00.283Z,1.52
2022-08-03T12:09:28.084Z,1.50
2022-08-03T12:11:59.848Z,1.92
2022-08-03T12:14:48.538Z,1.70
2022-08-03T12:17:19.963Z,2.03
2022-08-03T12:19:48.256Z,1.85
2022-08-03T12:22:17.003Z,1.70
2022-08-03T12:24:47.812Z,1.70
2022-08-03T12:27:26.021Z,1.40
2022-08-03T12:29:58.359Z,1.58
2022-08-03T12:32:30.266Z,1.83
2022-08-03T12:35:01.250Z,2.00
2022-08-03T12:37:30.527Z,1.63
2022-08-03T12:40:10.536Z,1.65
2022-08-03T12:42:40.563Z,1.42
2022-08-03T12:45:23.327Z,1.98
2022-08-03T12:47:58.990Z,1.67
2022-08-03T12:50:32.099Z,1.80
2022-08-03T12:53:01.329Z,2.03
2022-08-03T12:55:56.252Z,1.52
2022-08-03T12:58:34.880Z,1.65
2022-08-03T13:01:09.995Z,1.55
2022-08-03T13:03:49.664Z,1.58
2022-08-03T13:06:19.830Z,1.50
2022-08-03T13:08:48.895Z,1.55
2022-08-03T13:11:22.155Z,1.80
2022-08-03T13:13:50.292Z,1.67
2022-08-03T13:16:19.443Z,1.75
2022-08-03T13:18:51.331Z,1.80
2022-08-03T13:21:21.415Z,1.63
2022-08-03T13:23:49.844Z,1.40
2022-08-03T13:26:17.676Z,2.08
2022-08-03T13:28:45.474Z,2.00
2022-08-03T13:31:13.566Z,1.35
2022-08-03T13:33:41.400Z,2.30
2022-08-03T13:36:10.534Z,1.50
2022-08-03T13:38:38.368Z,1.52
2022-08-03T13:41:07.048Z,1.48
2022-08-03T13:43:34.908Z,1.63
2022-08-03T13:46:02.681Z,1.27
2022-08-03T13:48:36.833Z,1.58
2022-08-03T13:51:21.829Z,1.55
2022-08-03T13:53:52.511Z,1.35
2022-08-03T13:56:20.495Z,2.13
2022-08-03T13:58:48.272Z,1.35
2022-08-03T14:01:16.191Z,1.60
2022-08-03T14:03:44.096Z,1.45
2022-08-03T14:06:12.078Z,1.67
2022-08-03T14:08:39.833Z,1.80
2022-08-03T14:11:09.013Z,1.83
2022-08-03T14:13:36.820Z,2.10
2022-08-03T14:16:05.576Z,1.88
2022-08-03T14:18:37.893Z,1.80
2022-08-03T14:21:09.316Z,2.20
2022-08-03T14:23:38.517Z,1.80
2022-08-03T14:26:08.007Z,1.85
2022-08-03T14:28:37.342Z,1.60
2022-08-03T14:31:08.348Z,1.85
2022-08-03T14:33:53.512Z,1.50
2022-08-03T14:36:21.393Z,1.40
2022-08-03T14:38:49.397Z,1.63
2022-08-03T14:41:19.938Z,1.70
2022-08-03T14:44:01.716Z,1.75
2022-08-03T14:46:31.311Z,1.80
2022-08-03T14:50:33.699Z,1.83
2022-08-03T14:51:53.778Z,1.73
2022-08-03T14:54:22.851Z,1.58
2022-08-03T14:56:50.696Z,1.50
2022-08-03T14:59:19.886Z,1.70
2022-08-03T15:02:04.540Z,1.95
2022-08-03T15:04:32.895Z,1.80
2022-08-03T15:07:01.429Z,2.03
2022-08-03T15:09:29.218Z,1.50
2022-08-03T15:11:56.987Z,1.70
2022-08-03T15:14:38.640Z,1.63
2022-08-03T15:17:07.175Z,1.48
2022-08-03T15:20:03.917Z,1.55
2022-08-03T15:22:25.234Z,1.70
2022-08-03T15:25:02.351Z,1.38
2022-08-03T15:27:30.214Z,1.52
2022-08-03T15:30:07.399Z,1.83
2022-08-03T15:32:38.115Z,1.63
2022-08-03T15:35:06.791Z,1.25
2022-08-03T15:37:34.552Z,1.80
2022-08-03T15:40:02.404Z,1.92
2022-08-03T15:42:31.551Z,1.60
2022-08-03T15:45:00.891Z,1.45
2022-08-03T15:47:28.842Z,1.40
2022-08-03T15:49:56.842Z,1.63
2022-08-03T15:52:24.734Z,1.70
2022-08-03T15:54:52.510Z,1.70
2022-08-03T15:57:21.490Z,1.55
2022-08-03T15:59:49.408Z,1.45
2022-08-03T16:02:18.728Z,1.73
2022-08-03T16:04:46.519Z,1.67
2022-08-03T16:07:15.640Z,1.50
2022-08-03T16:09:44.316Z,1.38
2022-08-03T16:12:15.913Z,1.48
2022-08-03T16:14:52.888Z,1.60
2022-08-03T16:17:24.089Z,1.60
2022-08-03T16:19:54.740Z,1.63
2022-08-03T16:22:23.773Z,1.23
2022-08-03T16:24:52.043Z,1.58
2022-08-03T16:27:37.062Z,1.40
2022-08-03T16:30:07.888Z,1.42
2022-08-03T16:32:39.626Z,1.50
2022-08-03T16:35:09.115Z,1.25
2022-08-03T16:37:54.694Z,1.38
2022-08-03T16:40:24.929Z,1.58
2022-08-03T16:42:52.766Z,1.30
2022-08-03T16:45:20.767Z,1.40
2022-08-03T16:48:01.744Z,1.10
2022-08-03T16:50:34.512Z,1.48
2022-08-03T16:53:06.240Z,1.58
2022-08-03T16:55:48.627Z,1.40
2022-08-03T16:58:34.790Z,1.70
2022-08-03T17:01:22.265Z,1.73
2022-08-03T17:04:02.618Z,1.52
2022-08-03T17:06:35.717Z,1.30
2022-08-03T17:09:08.648Z,1.75
2022-08-03T17:11:47.638Z,1.50
2022-08-03T17:14:21.953Z,1.90
2022-08-03T17:16:54.308Z,1.67
2022-08-03T17:19:26.119Z,2.00
2022-08-03T17:22:04.318Z,1.67
2022-08-03T17:24:34.798Z,1.90
2022-08-03T17:27:09.259Z,1.33
2022-08-03T17:30:03.737Z,1.55
2022-08-03T17:32:36.702Z,1.38
2022-08-03T17:35:12.099Z,1.45
2022-08-03T17:37:58.429Z,1.58
2022-08-03T17:40:30.946Z,1.83
2022-08-03T17:43:00.327Z,1.70
2022-08-03T17:45:42.189Z,1.45
2022-08-03T17:48:18.579Z,1.48
2022-08-03T17:50:54.760Z,1.70
2022-08-03T17:53:30.559Z,1.35
2022-08-03T17:56:44.700Z,1.60
2022-08-03T17:59:17.022Z,1.73
2022-08-03T18:02:39.636Z,1.58
2022-08-03T18:05:21.806Z,1.58
2022-08-03T18:08:01.579Z,1.48
2022-08-03T18:10:49.744Z,1.70
2022-08-03T18:13:24.981Z,1.90
2022-08-03T18:16:02.727Z,1.73
2022-08-03T18:18:37.380Z,1.45
2022-08-03T18:21:09.357Z,1.70
2022-08-03T18:23:50.250Z,1.58
2022-08-03T18:26:21.120Z,1.83
2022-08-03T18:28:53.537Z,1.38
2022-08-03T18:31:33.163Z,2.05
2022-08-03T18:34:33.003Z,1.63
2022-08-03T18:37:07.577Z,1.73
2022-08-03T18:39:49.884Z,1.40
2022-08-03T18:42:25.818Z,1.58
2022-08-03T18:44:56.174Z,1.50
2022-08-03T18:50:49.734Z,1.98
2022-08-03T18:54:03.097Z,2.20
2022-08-03T18:56:27.834Z,1.70
2022-08-03T18:59:05.294Z,2.00
2022-08-03T19:02:00.682Z,1.90
2022-08-03T19:04:35.779Z,1.75
2022-08-03T19:07:08.308Z,1.77
2022-08-03T19:09:51.629Z,1.38
2022-08-03T19:15:05.991Z,1.30
2022-08-03T19:17:42.786Z,1.85
2022-08-03T19:20:22.812Z,2.13
2022-08-03T19:22:55.781Z,1.20
2022-08-03T19:25:27.943Z,1.35
2022-08-03T19:28:05.883Z,1.25
2022-08-03T19:30:39.800Z,1.60
2022-08-03T19:33:11.074Z,1.38
2022-08-03T19:35:51.854Z,1.73
2022-08-03T19:38:28.501Z,1.80
2022-08-03T19:41:00.144Z,1.67
2022-08-03T19:43:52.809Z,1.48
2022-08-03T19:46:27.732Z,1.60
2022-08-03T19:49:04.125Z,1.63
2022-08-03T19:52:02.346Z,1.75
2022-08-03T19:54:29.783Z,1.50
2022-08-03T19:57:02.077Z,1.80
2022-08-03T19:59:39.236Z,2.20
2022-08-03T20:02:27.290Z,1.48
2022-08-03T20:04:57.576Z,1.40
2022-08-03T20:07:30.643Z,2.13
2022-08-03T20:10:01.331Z,1.73
2022-08-03T20:12:33.194Z,2.25
2022-08-03T20:15:08.988Z,1.63
2022-08-03T20:17:54.849Z,1.92
2022-08-03T20:20:28.766Z,2.17
2022-08-03T20:23:01.480Z,2.22
2022-08-03T20:25:37.646Z,1.90
2022-08-03T20:28:13.827Z,1.65
2022-08-03T20:30:47.328Z,2.25
2022-08-03T20:33:18.639Z,2.00
2022-08-03T20:35:49.794Z,2.30
2022-08-03T20:38:19.835Z,2.00
2022-08-03T20:40:56.175Z,1.63
2022-08-03T20:43:27.481Z,1.58
2022-08-03T20:45:59.991Z,1.88
2022-08-03T20:48:48.750Z,1.85
2022-08-03T20:51:20.079Z,2.08
2022-08-03T20:53:59.505Z,1.88
2022-08-03T20:56:33.682Z,1.90
2022-08-03T20:59:04.139Z,1.88
2022-08-03T21:01:36.355Z,1.90
2022-08-03T21:04:06.789Z,1.70
2022-08-03T21:06:42.849Z,2.63
2022-08-03T21:09:20.503Z,2.40
2022-08-03T21:11:53.161Z,2.00
2022-08-03T21:13:08.942Z,2.30
2022-08-03T21:14:28.939Z,2.10
2022-08-03T21:17:03.606Z,1.73
2022-08-03T21:19:33.525Z,2.30
2022-08-03T21:22:05.270Z,2.08
2022-08-03T21:24:35.985Z,2.00
2022-08-03T21:27:04.303Z,1.90
2022-08-03T21:29:34.369Z,2.08
2022-08-03T21:32:32.626Z,1.88
2022-08-03T21:35:02.445Z,2.10
2022-08-03T21:37:30.396Z,1.88
2022-08-03T21:39:58.245Z,2.00
2022-08-03T21:42:26.053Z,2.00
2022-08-03T21:44:54.807Z,2.38
2022-08-03T21:47:25.417Z,1.70
2022-08-03T21:50:07.972Z,2.00
2022-08-03T21:52:44.246Z,1.80
2022-08-03T21:55:20.591Z,1.90
2022-08-03T21:57:54.370Z,1.67
2022-08-03T22:00:24.053Z,1.83
2022-08-03T22:02:57.404Z,2.00
2022-08-03T22:08:12.179Z,1.85
2022-08-03T22:10:40.483Z,1.70
2022-08-03T22:13:08.458Z,2.08
2022-08-03T22:15:36.343Z,1.75
2022-08-03T22:18:06.442Z,2.13
2022-08-03T22:20:34.472Z,2.20
2022-08-03T22:23:06.735Z,1.73
2022-08-03T22:25:37.964Z,1.80
2022-08-03T22:28:09.464Z,1.98
2022-08-03T22:30:39.406Z,2.05
2022-08-03T22:33:11.994Z,1.67
2022-08-03T22:35:48.309Z,2.17
2022-08-03T22:38:17.435Z,1.77
2022-08-03T22:40:49.693Z,1.90
2022-08-03T22:43:17.954Z,2.05
2022-08-03T22:46:10.477Z,2.15
2022-08-03T22:48:41.405Z,2.00
2022-08-03T22:51:09.761Z,2.80
2022-08-03T22:53:39.163Z,2.30
2022-08-03T22:56:08.118Z,2.25
2022-08-03T22:58:35.896Z,2.00
2022-08-03T23:01:08.079Z,1.90
2022-08-03T23:04:00.805Z,2.05
2022-08-03T23:06:35.408Z,2.20
2022-08-03T23:09:07.491Z,2.35
2022-08-03T23:11:37.880Z,2.20
2022-08-03T23:14:13.979Z,2.35
2022-08-03T23:16:44.668Z,1.52
2022-08-03T23:19:25.222Z,2.10
2022-08-03T23:22:02.279Z,1.73
2022-08-03T23:24:36.716Z,2.10
2022-08-03T23:27:06.766Z,1.90
2022-08-03T23:29:37.616Z,1.88
2022-08-03T23:32:07.557Z,1.65
2022-08-03T23:34:58.227Z,2.03
2022-08-03T23:37:27.679Z,1.70
2022-08-03T23:39:58.093Z,2.08
2022-08-03T23:42:27.243Z,2.00
2022-08-03T23:44:59.378Z,2.00
2022-08-03T23:47:46.546Z,1.98
2022-08-03T23:50:17.802Z,2.10
2022-08-03T23:53:01.752Z,1.98
2022-08-03T23:55:47.934Z,1.75
2022-08-03T23:58:42.066Z,1.70
